sensor_id;sensor_type;location;lat;lon;timestamp;temperature;humidity
33460;DHT22;19795;53.160;6.612;2023-03-14T05:30:50;8.40;99.90
33460;DHT22;19795;53.160;6.612;2023-03-14T05:33:15;8.40;99.90
33460;DHT22;19795;53.160;6.612;2023-03-14T05:35:42;8.40;99.90
33460;DHT22;19795;53.160;6.612;2023-03-14T05:38:08;8.40;99.90
33460;DHT22;19795;53.160;6.612;2023-03-14T05:40:34;8.40;99.90
33460;DHT22;19795;53.160;6.612;2023-03-14T05:43:00;8.40;99.90
33460;DHT22;19795;53.160;6.612;2023-03-14T05:45:26;8.40;99.90
33460;DHT22;19795;53.160;6.612;2023-03-14T05:47:51;8.50;99.90
33460;DHT22;19795;53.160;6.612;2023-03-14T05:50:17;8.40;99.90
33460;DHT22;19795;53.160;6.612;2023-03-14T05:52:42;8.40;99.90
33460;DHT22;19795;53.160;6.612;2023-03-14T05:55:08;8.50;99.90
33460;DHT22;19795;53.160;6.612;2023-03-14T05:57:34;8.40;99.90
33460;DHT22;19795;53.160;6.612;2023-03-14T05:59:59;8.40;99.90
33460;DHT22;19795;53.160;6.612;2023-03-14T06:02:25;8.40;99.90
33460;DHT22;19795;53.160;6.612;2023-03-14T06:04:51;8.40;99.90
33460;DHT22;19795;53.160;6.612;2023-03-14T06:07:17;8.40;99.90
33460;DHT22;19795;53.160;6.612;2023-03-14T06:09:43;8.40;99.90
33460;DHT22;19795;53.160;6.612;2023-03-14T06:12:09;8.40;99.90
33460;DHT22;19795;53.160;6.612;2023-03-14T06:14:35;8.40;99.90
33460;DHT22;19795;53.160;6.612;2023-03-14T06:17:00;8.40;99.90
33460;DHT22;19795;53.160;6.612;2023-03-14T06:19:26;8.30;99.90
33460;DHT22;19795;53.160;6.612;2023-03-14T06:21:52;8.40;99.90
33460;DHT22;19795;53.160;6.612;2023-03-14T06:24:17;8.40;99.90
33460;DHT22;19795;53.160;6.612;2023-03-14T06:26:44;8.40;99.90
33460;DHT22;19795;53.160;6.612;2023-03-14T06:29:10;8.30;99.90
33460;DHT22;19795;53.160;6.612;2023-03-14T06:31:36;8.40;99.90
33460;DHT22;19795;53.160;6.612;2023-03-14T06:34:02;8.30;99.90
33460;DHT22;19795;53.160;6.612;2023-03-14T06:36:28;8.40;99.90
33460;DHT22;19795;53.160;6.612;2023-03-14T06:38:53;8.30;99.90
33460;DHT22;19795;53.160;6.612;2023-03-14T06:41:19;8.40;99.90
33460;DHT22;19795;53.160;6.612;2023-03-14T06:43:45;7.40;99.90
33460;DHT22;19795;53.160;6.612;2023-03-14T06:46:11;6.70;99.90
33460;DHT22;19795;53.160;6.612;2023-03-14T06:48:36;6.60;99.90
33460;DHT22;19795;53.160;6.612;2023-03-14T06:51:02;6.50;99.90
33460;DHT22;19795;53.160;6.612;2023-03-14T06:53:28;6.40;99.90
33460;DHT22;19795;53.160;6.612;2023-03-14T06:55:53;6.40;99.90
33460;DHT22;19795;53.160;6.612;2023-03-14T06:58:19;6.20;99.90
33460;DHT22;19795;53.160;6.612;2023-03-14T07:00:45;6.10;99.90
33460;DHT22;19795;53.160;6.612;2023-03-14T07:03:13;5.80;99.90
33460;DHT22;19795;53.160;6.612;2023-03-14T07:05:39;5.60;99.90
33460;DHT22;19795;53.160;6.612;2023-03-14T07:08:06;5.50;99.90
33460;DHT22;19795;53.160;6.612;2023-03-14T07:10:32;5.20;99.90
33460;DHT22;19795;53.160;6.612;2023-03-14T07:12:58;5.20;99.90
33460;DHT22;19795;53.160;6.612;2023-03-14T07:15:24;4.90;99.90
33460;DHT22;19795;53.160;6.612;2023-03-14T07:17:50;4.80;99.90
33460;DHT22;19795;53.160;6.612;2023-03-14T07:20:18;4.70;99.90
33460;DHT22;19795;53.160;6.612;2023-03-14T07:22:46;4.40;99.90
33460;DHT22;19795;53.160;6.612;2023-03-14T07:25:13;4.40;99.90
33460;DHT22;19795;53.160;6.612;2023-03-14T07:27:39;4.40;99.90
33460;DHT22;19795;53.160;6.612;2023-03-14T07:30:05;4.20;99.90
33460;DHT22;19795;53.160;6.612;2023-03-14T07:32:31;4.10;99.90
33460;DHT22;19795;53.160;6.612;2023-03-14T07:34:56;4.10;99.90
33460;DHT22;19795;53.160;6.612;2023-03-14T07:37:22;4.00;99.90
33460;DHT22;19795;53.160;6.612;2023-03-14T07:39:48;4.10;99.90
33460;DHT22;19795;53.160;6.612;2023-03-14T07:42:13;3.90;99.90
33460;DHT22;19795;53.160;6.612;2023-03-14T07:44:39;4.00;99.90
33460;DHT22;19795;53.160;6.612;2023-03-14T07:47:05;3.90;99.90
33460;DHT22;19795;53.160;6.612;2023-03-14T07:49:30;3.90;99.90
33460;DHT22;19795;53.160;6.612;2023-03-14T07:51:56;3.90;99.90
33460;DHT22;19795;53.160;6.612;2023-03-14T07:54:23;3.90;99.90
33460;DHT22;19795;53.160;6.612;2023-03-14T07:56:50;4.00;99.90
33460;DHT22;19795;53.160;6.612;2023-03-14T07:59:17;3.90;99.90
33460;DHT22;19795;53.160;6.612;2023-03-14T08:01:43;4.00;99.90
33460;DHT22;19795;53.160;6.612;2023-03-14T08:04:09;4.00;99.90
33460;DHT22;19795;53.160;6.612;2023-03-14T08:06:37;4.00;99.90
33460;DHT22;19795;53.160;6.612;2023-03-14T08:09:04;4.00;99.90
33460;DHT22;19795;53.160;6.612;2023-03-14T08:11:30;4.00;99.90
33460;DHT22;19795;53.160;6.612;2023-03-14T08:13:55;4.00;99.90
33460;DHT22;19795;53.160;6.612;2023-03-14T08:16:21;4.10;99.90
33460;DHT22;19795;53.160;6.612;2023-03-14T08:18:47;4.20;99.90
33460;DHT22;19795;53.160;6.612;2023-03-14T08:21:13;4.20;99.90
33460;DHT22;19795;53.160;6.612;2023-03-14T08:23:39;4.30;99.90
33460;DHT22;19795;53.160;6.612;2023-03-14T08:26:06;4.40;99.90
33460;DHT22;19795;53.160;6.612;2023-03-14T08:28:31;4.50;99.90
33460;DHT22;19795;53.160;6.612;2023-03-14T08:30:59;4.60;99.90
33460;DHT22;19795;53.160;6.612;2023-03-14T08:33:26;4.60;99.90
33460;DHT22;19795;53.160;6.612;2023-03-14T08:35:56;4.70;99.90
33460;DHT22;19795;53.160;6.612;2023-03-14T08:38:22;4.90;99.90
33460;DHT22;19795;53.160;6.612;2023-03-14T08:40:48;4.90;99.90
33460;DHT22;19795;53.160;6.612;2023-03-14T08:43:15;4.90;99.90
33460;DHT22;19795;53.160;6.612;2023-03-14T08:45:41;5.20;99.90
33460;DHT22;19795;53.160;6.612;2023-03-14T08:48:06;5.00;99.90
33460;DHT22;19795;53.160;6.612;2023-03-14T08:50:32;5.10;99.90
33460;DHT22;19795;53.160;6.612;2023-03-14T08:52:58;5.30;99.90
33460;DHT22;19795;53.160;6.612;2023-03-14T08:55:28;5.10;99.90
33460;DHT22;19795;53.160;6.612;2023-03-14T08:57:54;5.20;99.90
33460;DHT22;19795;53.160;6.612;2023-03-14T09:00:20;5.20;99.90
33460;DHT22;19795;53.160;6.612;2023-03-14T09:02:46;6.10;99.90
33460;DHT22;19795;53.160;6.612;2023-03-14T09:05:12;5.60;99.90
33460;DHT22;19795;53.160;6.612;2023-03-14T09:07:39;5.70;99.90
33460;DHT22;19795;53.160;6.612;2023-03-14T09:10:06;5.70;99.90
33460;DHT22;19795;53.160;6.612;2023-03-14T09:12:32;5.60;99.90
33460;DHT22;19795;53.160;6.612;2023-03-14T09:14:57;5.70;99.90
33460;DHT22;19795;53.160;6.612;2023-03-14T09:17:23;5.80;99.90
33460;DHT22;19795;53.160;6.612;2023-03-14T09:19:49;5.80;99.90
33460;DHT22;19795;53.160;6.612;2023-03-14T09:22:14;6.10;99.90
33460;DHT22;19795;53.160;6.612;2023-03-14T09:24:41;6.40;99.90
33460;DHT22;19795;53.160;6.612;2023-03-14T09:27:07;6.50;99.90
33460;DHT22;19795;53.160;6.612;2023-03-14T09:29:33;6.50;99.90
33460;DHT22;19795;53.160;6.612;2023-03-14T09:31:59;6.40;99.90
33460;DHT22;19795;53.160;6.612;2023-03-14T09:34:25;6.30;99.90
33460;DHT22;19795;53.160;6.612;2023-03-14T09:36:51;6.10;99.90
33460;DHT22;19795;53.160;6.612;2023-03-14T09:39:16;6.10;99.90
33460;DHT22;19795;53.160;6.612;2023-03-14T09:41:52;6.10;99.90
33460;DHT22;19795;53.160;6.612;2023-03-14T09:44:29;6.20;99.90
33460;DHT22;19795;53.160;6.612;2023-03-14T09:46:58;6.00;99.90
33460;DHT22;19795;53.160;6.612;2023-03-14T09:49:34;5.80;99.90
33460;DHT22;19795;53.160;6.612;2023-03-14T09:52:04;5.90;99.90
33460;DHT22;19795;53.160;6.612;2023-03-14T09:54:36;6.10;99.90
33460;DHT22;19795;53.160;6.612;2023-03-14T09:57:05;6.10;99.90
33460;DHT22;19795;53.160;6.612;2023-03-14T09:59:31;6.40;99.90
33460;DHT22;19795;53.160;6.612;2023-03-14T10:02:14;6.50;99.90
33460;DHT22;19795;53.160;6.612;2023-03-14T10:04:40;6.40;99.90
33460;DHT22;19795;53.160;6.612;2023-03-14T10:07:13;6.60;99.90
33460;DHT22;19795;53.160;6.612;2023-03-14T10:09:42;6.40;99.90
33460;DHT22;19795;53.160;6.612;2023-03-14T10:12:08;6.30;99.90
33460;DHT22;19795;53.160;6.612;2023-03-14T10:14:38;6.10;99.90
33460;DHT22;19795;53.160;6.612;2023-03-14T10:17:14;6.20;99.90
33460;DHT22;19795;53.160;6.612;2023-03-14T10:19:58;6.20;99.90
33460;DHT22;19795;53.160;6.612;2023-03-14T10:22:29;6.30;99.90
33460;DHT22;19795;53.160;6.612;2023-03-14T10:25:05;6.30;99.90
33460;DHT22;19795;53.160;6.612;2023-03-14T10:27:34;6.60;99.90
33460;DHT22;19795;53.160;6.612;2023-03-14T10:30:04;6.70;99.90
33460;DHT22;19795;53.160;6.612;2023-03-14T10:32:36;6.80;99.50
33460;DHT22;19795;53.160;6.612;2023-03-14T10:37:52;6.70;91.90
33460;DHT22;19795;53.160;6.612;2023-03-14T10:40:22;6.70;36.70
33460;DHT22;19795;53.160;6.612;2023-03-14T10:42:49;6.50;27.50
33460;DHT22;19795;53.160;6.612;2023-03-14T10:47:51;6.90;24.40
33460;DHT22;19795;53.160;6.612;2023-03-14T10:50:29;6.80;22.40
33460;DHT22;19795;53.160;6.612;2023-03-14T10:52:55;6.60;1.00
33460;DHT22;19795;53.160;6.612;2023-03-14T10:55:23;7.10;21.00
33460;DHT22;19795;53.160;6.612;2023-03-14T10:57:50;7.20;1.00
33460;DHT22;19795;53.160;6.612;2023-03-14T11:00:19;7.50;1.00
33460;DHT22;19795;53.160;6.612;2023-03-14T11:03:06;7.30;1.00
33460;DHT22;19795;53.160;6.612;2023-03-14T11:05:56;6.60;1.00
33460;DHT22;19795;53.160;6.612;2023-03-14T11:08:35;7.50;1.00
33460;DHT22;19795;53.160;6.612;2023-03-14T11:11:17;7.30;1.00
33460;DHT22;19795;53.160;6.612;2023-03-14T11:13:47;6.80;99.90
33460;DHT22;19795;53.160;6.612;2023-03-14T11:16:33;6.50;99.90
33460;DHT22;19795;53.160;6.612;2023-03-14T11:29:41;6.70;99.90
33460;DHT22;19795;53.160;6.612;2023-03-14T11:35:04;6.70;99.90
33460;DHT22;19795;53.160;6.612;2023-03-14T11:37:35;7.50;1.00
33460;DHT22;19795;53.160;6.612;2023-03-14T11:40:19;7.70;99.90
33460;DHT22;19795;53.160;6.612;2023-03-14T11:42:53;8.50;99.90
33460;DHT22;19795;53.160;6.612;2023-03-14T11:45:32;7.90;1.00
33460;DHT22;19795;53.160;6.612;2023-03-14T11:48:20;7.40;1.00
33460;DHT22;19795;53.160;6.612;2023-03-14T11:50:52;7.10;1.00
33460;DHT22;19795;53.160;6.612;2023-03-14T11:53:50;6.80;1.00
33460;DHT22;19795;53.160;6.612;2023-03-14T11:56:25;6.50;39.30
33460;DHT22;19795;53.160;6.612;2023-03-14T11:59:01;6.40;99.90
33460;DHT22;19795;53.160;6.612;2023-03-14T12:01:36;6.70;1.00
33460;DHT22;19795;53.160;6.612;2023-03-14T12:04:17;7.10;99.90
33460;DHT22;19795;53.160;6.612;2023-03-14T12:09:11;8.20;1.00
33460;DHT22;19795;53.160;6.612;2023-03-14T12:11:57;7.50;99.90
33460;DHT22;19795;53.160;6.612;2023-03-14T12:14:27;7.30;99.90
33460;DHT22;19795;53.160;6.612;2023-03-14T12:24:27;7.10;1.00
33460;DHT22;19795;53.160;6.612;2023-03-14T12:26:56;7.00;50.80
33460;DHT22;19795;53.160;6.612;2023-03-14T12:29:23;6.90;99.90
33460;DHT22;19795;53.160;6.612;2023-03-14T12:32:12;6.80;99.90
33460;DHT22;19795;53.160;6.612;2023-03-14T12:34:46;6.70;99.90
33460;DHT22;19795;53.160;6.612;2023-03-14T12:37:19;6.70;99.90
33460;DHT22;19795;53.160;6.612;2023-03-14T12:40:25;7.00;1.00
33460;DHT22;19795;53.160;6.612;2023-03-14T12:43:00;7.20;99.90
33460;DHT22;19795;53.160;6.612;2023-03-14T12:45:29;6.90;99.90
33460;DHT22;19795;53.160;6.612;2023-03-14T12:48:05;6.70;99.90
33460;DHT22;19795;53.160;6.612;2023-03-14T12:50:45;6.50;1.00
33460;DHT22;19795;53.160;6.612;2023-03-14T12:59:30;7.20;1.00
33460;DHT22;19795;53.160;6.612;2023-03-14T13:02:26;7.00;99.90
33460;DHT22;19795;53.160;6.612;2023-03-14T13:05:01;6.90;99.90
33460;DHT22;19795;53.160;6.612;2023-03-14T13:07:35;6.60;99.90
33460;DHT22;19795;53.160;6.612;2023-03-14T13:10:05;6.50;1.00
33460;DHT22;19795;53.160;6.612;2023-03-14T13:13:09;6.30;99.90
33460;DHT22;19795;53.160;6.612;2023-03-14T13:15:45;6.30;99.90
33460;DHT22;19795;53.160;6.612;2023-03-14T13:21:03;6.20;99.90
33460;DHT22;19795;53.160;6.612;2023-03-14T13:23:34;6.60;1.00
33460;DHT22;19795;53.160;6.612;2023-03-14T13:26:01;6.30;1.00
33460;DHT22;19795;53.160;6.612;2023-03-14T13:28:28;6.60;1.00
33460;DHT22;19795;53.160;6.612;2023-03-14T13:31:01;6.30;1.00
33460;DHT22;19795;53.160;6.612;2023-03-14T13:33:27;6.10;99.90
33460;DHT22;19795;53.160;6.612;2023-03-14T13:36:00;6.20;99.90
33460;DHT22;19795;53.160;6.612;2023-03-14T13:38:30;6.40;99.90
33460;DHT22;19795;53.160;6.612;2023-03-14T13:41:00;7.00;1.00
33460;DHT22;19795;53.160;6.612;2023-03-14T13:43:33;6.80;1.00
33460;DHT22;19795;53.160;6.612;2023-03-14T13:48:32;7.30;1.00
33460;DHT22;19795;53.160;6.612;2023-03-14T13:51:04;6.80;99.90
33460;DHT22;19795;53.160;6.612;2023-03-14T13:53:31;6.90;15.60
33460;DHT22;19795;53.160;6.612;2023-03-14T13:56:02;7.10;99.90
33460;DHT22;19795;53.160;6.612;2023-03-14T13:58:30;7.20;1.00
33460;DHT22;19795;53.160;6.612;2023-03-14T14:01:05;7.30;99.90
33460;DHT22;19795;53.160;6.612;2023-03-14T14:03:34;7.60;1.00
33460;DHT22;19795;53.160;6.612;2023-03-14T14:06:02;7.00;1.00
33460;DHT22;19795;53.160;6.612;2023-03-14T14:08:27;7.10;1.00
33460;DHT22;19795;53.160;6.612;2023-03-14T14:10:59;6.90;99.90
33460;DHT22;19795;53.160;6.612;2023-03-14T14:13:29;6.60;1.00
33460;DHT22;19795;53.160;6.612;2023-03-14T14:15:59;6.50;99.90
33460;DHT22;19795;53.160;6.612;2023-03-14T14:18:27;6.70;99.90
33460;DHT22;19795;53.160;6.612;2023-03-14T14:20:54;7.00;1.00
33460;DHT22;19795;53.160;6.612;2023-03-14T14:23:22;7.30;1.00
33460;DHT22;19795;53.160;6.612;2023-03-14T14:25:54;7.10;99.90
33460;DHT22;19795;53.160;6.612;2023-03-14T14:28:35;6.60;99.90
33460;DHT22;19795;53.160;6.612;2023-03-14T14:31:18;6.50;99.90
33460;DHT22;19795;53.160;6.612;2023-03-14T14:34:00;6.40;99.90
33460;DHT22;19795;53.160;6.612;2023-03-14T14:39:46;6.40;99.90
33460;DHT22;19795;53.160;6.612;2023-03-14T14:42:12;6.40;99.90
33460;DHT22;19795;53.160;6.612;2023-03-14T14:44:38;6.50;99.90
33460;DHT22;19795;53.160;6.612;2023-03-14T14:47:04;6.40;1.00
33460;DHT22;19795;53.160;6.612;2023-03-14T14:49:31;7.00;1.00
33460;DHT22;19795;53.160;6.612;2023-03-14T14:54:42;6.90;42.20
33460;DHT22;19795;53.160;6.612;2023-03-14T14:57:24;6.40;99.90
33460;DHT22;19795;53.160;6.612;2023-03-14T14:59:51;6.20;1.00
33460;DHT22;19795;53.160;6.612;2023-03-14T15:04:55;6.80;1.00
33460;DHT22;19795;53.160;6.612;2023-03-14T15:07:25;6.60;1.00
33460;DHT22;19795;53.160;6.612;2023-03-14T15:09:51;6.30;99.90
33460;DHT22;19795;53.160;6.612;2023-03-14T15:12:17;6.70;1.00
33460;DHT22;19795;53.160;6.612;2023-03-14T15:14:43;7.30;99.90
33460;DHT22;19795;53.160;6.612;2023-03-14T15:17:11;7.10;99.90
33460;DHT22;19795;53.160;6.612;2023-03-14T15:19:38;7.10;99.90
33460;DHT22;19795;53.160;6.612;2023-03-14T15:22:10;6.50;99.90
33460;DHT22;19795;53.160;6.612;2023-03-14T15:24:38;6.10;99.90
33460;DHT22;19795;53.160;6.612;2023-03-14T15:27:09;5.80;1.00
33460;DHT22;19795;53.160;6.612;2023-03-14T15:29:36;5.60;1.00
33460;DHT22;19795;53.160;6.612;2023-03-14T15:32:03;5.60;1.00
33460;DHT22;19795;53.160;6.612;2023-03-14T15:34:28;5.50;1.00
33460;DHT22;19795;53.160;6.612;2023-03-14T15:36:54;5.90;99.90
33460;DHT22;19795;53.160;6.612;2023-03-14T15:39:20;6.00;99.90
33460;DHT22;19795;53.160;6.612;2023-03-14T15:41:46;5.90;71.50
33460;DHT22;19795;53.160;6.612;2023-03-14T15:44:11;5.90;99.90
33460;DHT22;19795;53.160;6.612;2023-03-14T15:46:37;5.80;33.00
33460;DHT22;19795;53.160;6.612;2023-03-14T15:49:04;6.10;99.90
33460;DHT22;19795;53.160;6.612;2023-03-14T15:51:30;6.00;99.90
33460;DHT22;19795;53.160;6.612;2023-03-14T15:53:55;6.10;99.90
33460;DHT22;19795;53.160;6.612;2023-03-14T15:56:22;6.20;1.00
33460;DHT22;19795;53.160;6.612;2023-03-14T15:58:50;6.30;99.90
33460;DHT22;19795;53.160;6.612;2023-03-14T16:01:16;6.20;99.90
33460;DHT22;19795;53.160;6.612;2023-03-14T16:03:46;6.10;1.00
33460;DHT22;19795;53.160;6.612;2023-03-14T16:06:12;5.80;1.00
33460;DHT22;19795;53.160;6.612;2023-03-14T16:08:38;5.60;1.00
33460;DHT22;19795;53.160;6.612;2023-03-14T16:11:04;5.50;3.30
33460;DHT22;19795;53.160;6.612;2023-03-14T16:13:30;5.30;1.00
33460;DHT22;19795;53.160;6.612;2023-03-14T16:16:00;5.30;3.00
33460;DHT22;19795;53.160;6.612;2023-03-14T16:18:35;5.40;9.10
33460;DHT22;19795;53.160;6.612;2023-03-14T16:21:03;5.30;20.40
33460;DHT22;19795;53.160;6.612;2023-03-14T16:23:32;5.30;1.00
33460;DHT22;19795;53.160;6.612;2023-03-14T16:25:58;5.20;1.00
33460;DHT22;19795;53.160;6.612;2023-03-14T16:28:25;5.30;1.00
33460;DHT22;19795;53.160;6.612;2023-03-14T16:30:51;5.20;1.00
33460;DHT22;19795;53.160;6.612;2023-03-14T16:33:17;5.20;1.00
33460;DHT22;19795;53.160;6.612;2023-03-14T16:35:55;4.50;93.50
33460;DHT22;19795;53.160;6.612;2023-03-14T16:38:22;3.80;99.90
33460;DHT22;19795;53.160;6.612;2023-03-14T16:41:06;3.70;99.90
33460;DHT22;19795;53.160;6.612;2023-03-14T16:43:32;3.80;99.90
33460;DHT22;19795;53.160;6.612;2023-03-14T16:46:01;4.20;99.90
33460;DHT22;19795;53.160;6.612;2023-03-14T16:48:27;4.30;99.90
33460;DHT22;19795;53.160;6.612;2023-03-14T16:50:54;4.40;99.90
33460;DHT22;19795;53.160;6.612;2023-03-14T16:53:20;4.60;99.90
33460;DHT22;19795;53.160;6.612;2023-03-14T16:55:46;4.20;99.90
33460;DHT22;19795;53.160;6.612;2023-03-14T16:58:12;4.10;99.90
33460;DHT22;19795;53.160;6.612;2023-03-14T17:00:38;4.10;99.90
33460;DHT22;19795;53.160;6.612;2023-03-14T17:03:04;4.20;99.90
33460;DHT22;19795;53.160;6.612;2023-03-14T17:05:31;4.30;99.90
33460;DHT22;19795;53.160;6.612;2023-03-14T17:07:57;4.40;99.90
33460;DHT22;19795;53.160;6.612;2023-03-14T17:10:23;4.20;95.00
33460;DHT22;19795;53.160;6.612;2023-03-14T17:12:48;4.10;94.40
33460;DHT22;19795;53.160;6.612;2023-03-14T17:15:14;4.10;75.90
33460;DHT22;19795;53.160;6.612;2023-03-14T17:17:40;4.00;99.90
33460;DHT22;19795;53.160;6.612;2023-03-14T17:20:06;4.00;99.90
33460;DHT22;19795;53.160;6.612;2023-03-14T17:22:34;3.90;99.90
33460;DHT22;19795;53.160;6.612;2023-03-14T17:24:59;4.10;99.90
33460;DHT22;19795;53.160;6.612;2023-03-14T17:27:26;4.20;99.90
33460;DHT22;19795;53.160;6.612;2023-03-14T17:29:52;3.50;99.90
33460;DHT22;19795;53.160;6.612;2023-03-14T17:32:18;3.30;99.90
33460;DHT22;19795;53.160;6.612;2023-03-14T17:34:44;3.00;99.90
33460;DHT22;19795;53.160;6.612;2023-03-14T17:37:10;3.00;99.90
33460;DHT22;19795;53.160;6.612;2023-03-14T17:39:36;2.90;99.90
33460;DHT22;19795;53.160;6.612;2023-03-14T17:42:06;2.90;99.90
33460;DHT22;19795;53.160;6.612;2023-03-14T17:44:33;2.90;99.90
33460;DHT22;19795;53.160;6.612;2023-03-14T17:46:59;2.80;99.90
33460;DHT22;19795;53.160;6.612;2023-03-14T17:49:25;2.80;99.90
33460;DHT22;19795;53.160;6.612;2023-03-14T17:51:51;2.80;99.90
33460;DHT22;19795;53.160;6.612;2023-03-14T17:54:17;2.80;99.90
33460;DHT22;19795;53.160;6.612;2023-03-14T17:56:42;2.80;99.90
33460;DHT22;19795;53.160;6.612;2023-03-14T17:59:09;2.80;99.90
33460;DHT22;19795;53.160;6.612;2023-03-14T18:01:36;2.80;99.90
33460;DHT22;19795;53.160;6.612;2023-03-14T18:04:02;2.70;99.90
33460;DHT22;19795;53.160;6.612;2023-03-14T18:06:28;2.60;99.90
33460;DHT22;19795;53.160;6.612;2023-03-14T18:08:55;2.60;99.90
33460;DHT22;19795;53.160;6.612;2023-03-14T18:11:21;2.40;99.90
33460;DHT22;19795;53.160;6.612;2023-03-14T18:13:48;2.40;99.90
33460;DHT22;19795;53.160;6.612;2023-03-14T18:16:14;2.40;99.90
33460;DHT22;19795;53.160;6.612;2023-03-14T18:18:41;2.10;99.90
33460;DHT22;19795;53.160;6.612;2023-03-14T18:21:07;2.00;99.90
33460;DHT22;19795;53.160;6.612;2023-03-14T18:23:36;1.90;99.90
33460;DHT22;19795;53.160;6.612;2023-03-14T18:26:02;1.80;99.90
33460;DHT22;19795;53.160;6.612;2023-03-14T18:28:29;1.70;99.90
33460;DHT22;19795;53.160;6.612;2023-03-14T18:31:02;1.70;99.90
33460;DHT22;19795;53.160;6.612;2023-03-14T18:33:30;1.60;99.90
33460;DHT22;19795;53.160;6.612;2023-03-14T18:36:03;1.60;99.90
33460;DHT22;19795;53.160;6.612;2023-03-14T18:38:29;1.50;99.90
33460;DHT22;19795;53.160;6.612;2023-03-14T18:40:55;1.50;99.90
33460;DHT22;19795;53.160;6.612;2023-03-14T18:43:20;1.50;99.90
33460;DHT22;19795;53.160;6.612;2023-03-14T18:45:46;1.30;99.90
33460;DHT22;19795;53.160;6.612;2023-03-14T18:48:12;1.30;99.90
33460;DHT22;19795;53.160;6.612;2023-03-14T18:50:37;1.30;99.90
33460;DHT22;19795;53.160;6.612;2023-03-14T18:53:03;1.20;99.90
33460;DHT22;19795;53.160;6.612;2023-03-14T18:55:29;1.20;99.90
33460;DHT22;19795;53.160;6.612;2023-03-14T18:57:54;1.20;99.90
33460;DHT22;19795;53.160;6.612;2023-03-14T19:00:21;1.20;99.90
33460;DHT22;19795;53.160;6.612;2023-03-14T19:02:46;1.30;99.90
33460;DHT22;19795;53.160;6.612;2023-03-14T19:05:12;1.40;99.90
33460;DHT22;19795;53.160;6.612;2023-03-14T19:07:38;1.50;99.90
33460;DHT22;19795;53.160;6.612;2023-03-14T19:10:04;1.60;99.90
33460;DHT22;19795;53.160;6.612;2023-03-14T19:12:30;1.80;99.90
33460;DHT22;19795;53.160;6.612;2023-03-14T19:14:55;1.90;99.90
33460;DHT22;19795;53.160;6.612;2023-03-14T19:17:22;2.00;99.90
33460;DHT22;19795;53.160;6.612;2023-03-14T19:19:47;2.10;99.90
33460;DHT22;19795;53.160;6.612;2023-03-14T19:22:13;2.20;99.90
33460;DHT22;19795;53.160;6.612;2023-03-14T19:24:39;2.20;99.90
33460;DHT22;19795;53.160;6.612;2023-03-14T19:27:05;2.20;99.90
33460;DHT22;19795;53.160;6.612;2023-03-14T19:29:30;2.10;99.90
33460;DHT22;19795;53.160;6.612;2023-03-14T19:31:57;1.90;99.90
33460;DHT22;19795;53.160;6.612;2023-03-14T19:34:22;1.70;99.90
33460;DHT22;19795;53.160;6.612;2023-03-14T19:36:48;1.70;99.90
33460;DHT22;19795;53.160;6.612;2023-03-14T19:39:15;1.70;99.90
33460;DHT22;19795;53.160;6.612;2023-03-14T19:41:40;1.80;99.90
33460;DHT22;19795;53.160;6.612;2023-03-14T19:44:06;1.70;99.90
33460;DHT22;19795;53.160;6.612;2023-03-14T19:46:32;1.60;99.90
33460;DHT22;19795;53.160;6.612;2023-03-14T19:49:00;1.60;99.90
33460;DHT22;19795;53.160;6.612;2023-03-14T19:51:26;1.50;99.90
33460;DHT22;19795;53.160;6.612;2023-03-14T19:53:51;1.50;99.90
33460;DHT22;19795;53.160;6.612;2023-03-14T19:56:17;1.40;99.90
33460;DHT22;19795;53.160;6.612;2023-03-14T19:58:45;1.90;99.90
33460;DHT22;19795;53.160;6.612;2023-03-14T20:01:11;1.40;99.90
33460;DHT22;19795;53.160;6.612;2023-03-14T20:03:37;1.40;99.90
33460;DHT22;19795;53.160;6.612;2023-03-14T20:06:07;1.40;99.90
33460;DHT22;19795;53.160;6.612;2023-03-14T20:08:33;1.40;99.90
33460;DHT22;19795;53.160;6.612;2023-03-14T20:11:07;1.30;99.90
33460;DHT22;19795;53.160;6.612;2023-03-14T20:13:33;1.30;99.90
33460;DHT22;19795;53.160;6.612;2023-03-14T20:15:59;1.30;99.90
33460;DHT22;19795;53.160;6.612;2023-03-14T20:18:24;1.30;99.90
33460;DHT22;19795;53.160;6.612;2023-03-14T20:20:51;1.30;99.90
33460;DHT22;19795;53.160;6.612;2023-03-14T20:23:16;1.30;99.90
33460;DHT22;19795;53.160;6.612;2023-03-14T20:25:43;1.30;99.90
33460;DHT22;19795;53.160;6.612;2023-03-14T20:28:11;1.30;99.90
33460;DHT22;19795;53.160;6.612;2023-03-14T20:30:36;1.30;99.90
33460;DHT22;19795;53.160;6.612;2023-03-14T20:33:03;1.40;99.90
33460;DHT22;19795;53.160;6.612;2023-03-14T20:35:29;1.30;99.90
33460;DHT22;19795;53.160;6.612;2023-03-14T20:37:55;1.30;99.90
33460;DHT22;19795;53.160;6.612;2023-03-14T20:40:22;1.30;99.90
33460;DHT22;19795;53.160;6.612;2023-03-14T20:42:48;1.30;99.90
33460;DHT22;19795;53.160;6.612;2023-03-14T20:45:14;1.30;99.90
33460;DHT22;19795;53.160;6.612;2023-03-14T20:47:40;1.20;99.90
33460;DHT22;19795;53.160;6.612;2023-03-14T20:50:07;1.20;99.90
33460;DHT22;19795;53.160;6.612;2023-03-14T20:52:33;1.10;99.90
33460;DHT22;19795;53.160;6.612;2023-03-14T20:54:58;1.10;99.90
33460;DHT22;19795;53.160;6.612;2023-03-14T20:57:24;1.10;99.90
33460;DHT22;19795;53.160;6.612;2023-03-14T20:59:50;1.00;99.90
33460;DHT22;19795;53.160;6.612;2023-03-14T21:02:15;1.10;99.90
33460;DHT22;19795;53.160;6.612;2023-03-14T21:04:41;1.10;99.90
33460;DHT22;19795;53.160;6.612;2023-03-14T21:07:07;1.20;99.90
33460;DHT22;19795;53.160;6.612;2023-03-14T21:09:33;1.10;99.90
33460;DHT22;19795;53.160;6.612;2023-03-14T21:11:58;1.20;99.90
33460;DHT22;19795;53.160;6.612;2023-03-14T21:14:24;1.20;99.90
33460;DHT22;19795;53.160;6.612;2023-03-14T21:16:50;1.20;99.90
33460;DHT22;19795;53.160;6.612;2023-03-14T21:19:21;1.30;99.90
33460;DHT22;19795;53.160;6.612;2023-03-14T21:21:55;1.30;99.90
33460;DHT22;19795;53.160;6.612;2023-03-14T21:24:21;1.20;99.90
33460;DHT22;19795;53.160;6.612;2023-03-14T21:26:50;1.20;99.90
33460;DHT22;19795;53.160;6.612;2023-03-14T21:29:16;1.20;99.90
33460;DHT22;19795;53.160;6.612;2023-03-14T21:31:42;1.20;99.90
33460;DHT22;19795;53.160;6.612;2023-03-14T21:34:08;1.40;99.90
33460;DHT22;19795;53.160;6.612;2023-03-14T21:36:33;1.30;99.90
33460;DHT22;19795;53.160;6.612;2023-03-14T21:38:59;1.30;99.90
33460;DHT22;19795;53.160;6.612;2023-03-14T21:41:26;1.50;99.90
33460;DHT22;19795;53.160;6.612;2023-03-14T21:43:52;1.60;99.90
33460;DHT22;19795;53.160;6.612;2023-03-14T21:46:18;1.70;99.90
33460;DHT22;19795;53.160;6.612;2023-03-14T21:48:44;1.70;99.90
33460;DHT22;19795;53.160;6.612;2023-03-14T21:51:11;1.80;99.90
33460;DHT22;19795;53.160;6.612;2023-03-14T21:53:38;1.90;99.90
33460;DHT22;19795;53.160;6.612;2023-03-14T21:56:04;2.00;99.90
33460;DHT22;19795;53.160;6.612;2023-03-14T21:58:31;2.10;99.90
33460;DHT22;19795;53.160;6.612;2023-03-14T22:01:01;2.30;99.90
33460;DHT22;19795;53.160;6.612;2023-03-14T22:03:27;2.20;99.90
